sensor_id;sensor_type;location;lat;lon;timestamp;pressure;altitude;pressure_sealevel;temperature;humidity
49055;BME280;35405;52.344;14.530;2024-02-04T00:00:42;101036.56;;;8.41;80.14
49055;BME280;35405;52.344;14.530;2024-02-04T00:03:07;101033.09;;;8.37;79.66
49055;BME280;35405;52.344;14.530;2024-02-04T00:05:33;101036.56;;;8.33;79.81
49055;BME280;35405;52.344;14.530;2024-02-04T00:07:58;101030.50;;;8.39;80.15
49055;BME280;35405;52.344;14.530;2024-02-04T00:10:23;101033.09;;;8.37;79.76
49055;BME280;35405;52.344;14.530;2024-02-04T00:12:48;101037.47;;;8.21;79.23
49055;BME280;35405;52.344;14.530;2024-02-04T00:15:15;101034.84;;;8.29;78.86
49055;BME280;35405;52.344;14.530;2024-02-04T00:17:40;101040.94;;;8.22;78.39
49055;BME280;35405;52.344;14.530;2024-02-04T00:20:05;101039.22;;;8.16;78.49
49055;BME280;35405;52.344;14.530;2024-02-04T00:22:34;101034.00;;;8.21;78.45
49055;BME280;35405;52.344;14.530;2024-02-04T00:25:00;101035.78;;;8.11;78.56
49055;BME280;35405;52.344;14.530;2024-02-04T00:27:30;101027.06;;;8.18;79.48
49055;BME280;35405;52.344;14.530;2024-02-04T00:29:55;101034.03;;;8.19;78.43
49055;BME280;35405;52.344;14.530;2024-02-04T00:32:20;101017.50;;;8.22;78.77
49055;BME280;35405;52.344;14.530;2024-02-04T00:34:45;101032.28;;;8.15;79.07
49055;BME280;35405;52.344;14.530;2024-02-04T00:37:11;101035.75;;;8.16;79.06
49055;BME280;35405;52.344;14.530;2024-02-04T00:39:36;101025.38;;;8.02;79.60
49055;BME280;35405;52.344;14.530;2024-02-04T00:42:01;101030.59;;;7.94;79.51
49055;BME280;35405;52.344;14.530;2024-02-04T00:44:26;101029.75;;;7.97;80.31
49055;BME280;35405;52.344;14.530;2024-02-04T00:46:52;101027.13;;;7.98;79.77
49055;BME280;35405;52.344;14.530;2024-02-04T00:49:17;101020.16;;;8.05;80.12
49055;BME280;35405;52.344;14.530;2024-02-04T00:51:42;101016.72;;;7.97;80.04
49055;BME280;35405;52.344;14.530;2024-02-04T00:54:07;101020.16;;;7.96;80.51
49055;BME280;35405;52.344;14.530;2024-02-04T00:56:32;101025.44;;;7.90;80.63
49055;BME280;35405;52.344;14.530;2024-02-04T00:58:58;101023.66;;;7.93;80.24
49055;BME280;35405;52.344;14.530;2024-02-04T01:01:23;101029.75;;;7.94;80.38
49055;BME280;35405;52.344;14.530;2024-02-04T01:03:48;101030.63;;;7.97;79.77
49055;BME280;35405;52.344;14.530;2024-02-04T01:06:14;101019.28;;;8.03;79.65
49055;BME280;35405;52.344;14.530;2024-02-04T01:08:39;101004.56;;;7.93;79.05
49055;BME280;35405;52.344;14.530;2024-02-04T01:11:05;101010.63;;;7.95;78.42
49055;BME280;35405;52.344;14.530;2024-02-04T01:13:30;101015.00;;;7.90;78.59
49055;BME280;35405;52.344;14.530;2024-02-04T01:15:56;101008.94;;;7.85;77.94
49055;BME280;35405;52.344;14.530;2024-02-04T01:18:21;101012.38;;;7.93;75.32
49055;BME280;35405;52.344;14.530;2024-02-04T01:20:46;101015.03;;;7.82;76.20
49055;BME280;35405;52.344;14.530;2024-02-04T01:23:12;101030.66;;;7.67;75.73
49055;BME280;35405;52.344;14.530;2024-02-04T01:25:38;101029.78;;;7.68;75.55
49055;BME280;35405;52.344;14.530;2024-02-04T01:28:03;101022.00;;;7.63;75.43
49055;BME280;35405;52.344;14.530;2024-02-04T01:30:29;101017.63;;;7.65;75.08
49055;BME280;35405;52.344;14.530;2024-02-04T01:32:55;101020.25;;;7.62;75.29
49055;BME280;35405;52.344;14.530;2024-02-04T01:35:20;101010.72;;;7.57;75.49
49055;BME280;35405;52.344;14.530;2024-02-04T01:37:46;101029.81;;;7.56;74.85
49055;BME280;35405;52.344;14.530;2024-02-04T01:40:13;101026.34;;;7.51;75.27
49055;BME280;35405;52.344;14.530;2024-02-04T01:42:38;101020.28;;;7.49;75.28
49055;BME280;35405;52.344;14.530;2024-02-04T01:45:04;101028.94;;;7.49;74.59
49055;BME280;35405;52.344;14.530;2024-02-04T01:47:29;101029.81;;;7.50;74.31
49055;BME280;35405;52.344;14.530;2024-02-04T01:49:54;101032.41;;;7.39;74.42
49055;BME280;35405;52.344;14.530;2024-02-04T01:52:23;101017.69;;;7.41;75.05
49055;BME280;35405;52.344;14.530;2024-02-04T01:54:48;101032.41;;;7.31;74.63
49055;BME280;35405;52.344;14.530;2024-02-04T01:57:15;101030.69;;;7.35;75.33
49055;BME280;35405;52.344;14.530;2024-02-04T01:59:41;101022.00;;;7.34;75.32
49055;BME280;35405;52.344;14.530;2024-02-04T02:02:07;101028.94;;;7.22;74.75
49055;BME280;35405;52.344;14.530;2024-02-04T02:04:32;101030.66;;;7.16;75.69
49055;BME280;35405;52.344;14.530;2024-02-04T02:06:57;101034.16;;;7.22;74.79
49055;BME280;35405;52.344;14.530;2024-02-04T02:09:25;101037.59;;;7.25;74.67
49055;BME280;35405;52.344;14.530;2024-02-04T02:11:54;101036.75;;;7.43;74.81
49055;BME280;35405;52.344;14.530;2024-02-04T02:14:23;101037.63;;;7.57;74.10
49055;BME280;35405;52.344;14.530;2024-02-04T02:16:50;101044.53;;;7.66;73.97
49055;BME280;35405;52.344;14.530;2024-02-04T02:22:04;101023.75;;;7.61;73.00
49055;BME280;35405;52.344;14.530;2024-02-04T02:24:35;101025.47;;;7.46;72.95
49055;BME280;35405;52.344;14.530;2024-02-04T02:27:00;101024.59;;;7.51;74.03
49055;BME280;35405;52.344;14.530;2024-02-04T02:29:26;101031.53;;;7.51;73.40
49055;BME280;35405;52.344;14.530;2024-02-04T02:31:51;101022.88;;;7.55;73.85
49055;BME280;35405;52.344;14.530;2024-02-04T02:34:16;101015.03;;;7.59;73.45
49055;BME280;35405;52.344;14.530;2024-02-04T02:36:45;101022.84;;;7.58;73.75
49055;BME280;35405;52.344;14.530;2024-02-04T02:39:24;101023.72;;;7.54;74.26
49055;BME280;35405;52.344;14.530;2024-02-04T02:41:50;101004.66;;;7.36;73.40
49055;BME280;35405;52.344;14.530;2024-02-04T02:44:17;101016.81;;;7.30;73.72
49055;BME280;35405;52.344;14.530;2024-02-04T02:46:44;101004.66;;;7.29;74.39
49055;BME280;35405;52.344;14.530;2024-02-04T02:49:10;101005.53;;;7.28;74.02
49055;BME280;35405;52.344;14.530;2024-02-04T02:51:35;101007.28;;;7.33;73.70
49055;BME280;35405;52.344;14.530;2024-02-04T02:54:00;101002.06;;;7.27;73.63
49055;BME280;35405;52.344;14.530;2024-02-04T02:56:26;100992.53;;;7.28;73.71
49055;BME280;35405;52.344;14.530;2024-02-04T02:58:51;101001.19;;;7.42;73.32
49055;BME280;35405;52.344;14.530;2024-02-04T03:01:16;101009.00;;;7.42;73.22
49055;BME280;35405;52.344;14.530;2024-02-04T03:03:42;101003.78;;;7.33;73.09
49055;BME280;35405;52.344;14.530;2024-02-04T03:06:07;101020.25;;;7.24;73.04
49055;BME280;35405;52.344;14.530;2024-02-04T03:08:33;101019.41;;;7.19;73.35
49055;BME280;35405;52.344;14.530;2024-02-04T03:10:58;101030.69;;;7.12;74.29
49055;BME280;35405;52.344;14.530;2024-02-04T03:13:23;101011.59;;;7.19;74.49
49055;BME280;35405;52.344;14.530;2024-02-04T03:15:48;101022.00;;;7.31;74.36
49055;BME280;35405;52.344;14.530;2024-02-04T03:18:14;101007.25;;;7.38;74.73
49055;BME280;35405;52.344;14.530;2024-02-04T03:20:39;101015.06;;;7.33;74.41
49055;BME280;35405;52.344;14.530;2024-02-04T03:23:04;101002.91;;;7.38;73.41
49055;BME280;35405;52.344;14.530;2024-02-04T03:25:29;100989.91;;;7.34;73.08
49055;BME280;35405;52.344;14.530;2024-02-04T03:27:55;100990.78;;;7.21;73.57
49055;BME280;35405;52.344;14.530;2024-02-04T03:30:20;100989.91;;;7.15;73.87
49055;BME280;35405;52.344;14.530;2024-02-04T03:32:45;100989.91;;;7.09;74.48
49055;BME280;35405;52.344;14.530;2024-02-04T03:35:11;100998.59;;;7.14;74.78
49055;BME280;35405;52.344;14.530;2024-02-04T03:37:36;100996.84;;;7.18;75.78
49055;BME280;35405;52.344;14.530;2024-02-04T03:40:01;100997.69;;;7.25;75.43
49055;BME280;35405;52.344;14.530;2024-02-04T03:42:26;100994.22;;;7.32;75.21
49055;BME280;35405;52.344;14.530;2024-02-04T03:44:52;100993.34;;;7.33;76.02
49055;BME280;35405;52.344;14.530;2024-02-04T03:47:17;100995.97;;;7.31;75.67
49055;BME280;35405;52.344;14.530;2024-02-04T03:49:42;100994.25;;;7.29;75.05
49055;BME280;35405;52.344;14.530;2024-02-04T03:52:07;100986.44;;;7.30;75.52
49055;BME280;35405;52.344;14.530;2024-02-04T03:54:32;100987.31;;;7.35;76.36
49055;BME280;35405;52.344;14.530;2024-02-04T03:56:58;100973.41;;;7.38;76.61
49055;BME280;35405;52.344;14.530;2024-02-04T03:59:23;100971.69;;;7.37;76.55
49055;BME280;35405;52.344;14.530;2024-02-04T04:01:48;100976.00;;;7.44;76.64
49055;BME280;35405;52.344;14.530;2024-02-04T04:04:21;100982.09;;;7.43;75.94
49055;BME280;35405;52.344;14.530;2024-02-04T04:06:46;100983.81;;;7.44;76.71
49055;BME280;35405;52.344;14.530;2024-02-04T04:09:11;100968.22;;;7.47;77.05
49055;BME280;35405;52.344;14.530;2024-02-04T04:11:37;100961.25;;;7.44;76.05
49055;BME280;35405;52.344;14.530;2024-02-04T04:14:02;100968.22;;;7.41;77.17
49055;BME280;35405;52.344;14.530;2024-02-04T04:16:27;100972.56;;;7.40;77.04
49055;BME280;35405;52.344;14.530;2024-02-04T04:18:53;100964.72;;;7.39;76.84
49055;BME280;35405;52.344;14.530;2024-02-04T04:21:18;100958.69;;;7.35;76.71
49055;BME280;35405;52.344;14.530;2024-02-04T04:23:43;100956.06;;;7.41;76.62
49055;BME280;35405;52.344;14.530;2024-02-04T04:26:08;100963.00;;;7.35;76.69
49055;BME280;35405;52.344;14.530;2024-02-04T04:28:34;100963.00;;;7.32;77.54
49055;BME280;35405;52.344;14.530;2024-02-04T04:30:59;100973.41;;;7.26;78.35
49055;BME280;35405;52.344;14.530;2024-02-04T04:33:24;100972.56;;;7.16;78.40
49055;BME280;35405;52.344;14.530;2024-02-04T04:35:50;100967.34;;;7.18;78.71
49055;BME280;35405;52.344;14.530;2024-02-04T04:38:15;100959.56;;;7.14;78.77
49055;BME280;35405;52.344;14.530;2024-02-04T04:40:40;100956.06;;;7.09;78.31
49055;BME280;35405;52.344;14.530;2024-02-04T04:43:06;100964.75;;;7.02;78.59
49055;BME280;35405;52.344;14.530;2024-02-04T04:45:31;100951.75;;;6.99;78.70
49055;BME280;35405;52.344;14.530;2024-02-04T04:47:56;100951.75;;;6.98;79.24
49055;BME280;35405;52.344;14.530;2024-02-04T04:50:21;100934.41;;;7.01;78.95
49055;BME280;35405;52.344;14.530;2024-02-04T04:52:46;100944.81;;;7.01;78.94
49055;BME280;35405;52.344;14.530;2024-02-04T04:55:12;100937.88;;;6.94;79.25
49055;BME280;35405;52.344;14.530;2024-02-04T04:57:37;100932.66;;;6.97;78.62
49055;BME280;35405;52.344;14.530;2024-02-04T05:00:02;100934.38;;;6.91;78.72
49055;BME280;35405;52.344;14.530;2024-02-04T05:02:32;100937.03;;;6.92;78.59
49055;BME280;35405;52.344;14.530;2024-02-04T05:04:57;100936.16;;;6.85;78.98
49055;BME280;35405;52.344;14.530;2024-02-04T05:07:22;100937.00;;;6.80;79.09
49055;BME280;35405;52.344;14.530;2024-02-04T05:09:47;100937.88;;;6.85;78.62
49055;BME280;35405;52.344;14.530;2024-02-04T05:12:13;100938.72;;;6.76;79.47
49055;BME280;35405;52.344;14.530;2024-02-04T05:14:38;100940.47;;;6.74;79.28
49055;BME280;35405;52.344;14.530;2024-02-04T05:17:04;100920.50;;;6.76;79.01
49055;BME280;35405;52.344;14.530;2024-02-04T05:19:29;100914.44;;;6.76;78.85
49055;BME280;35405;52.344;14.530;2024-02-04T05:21:54;100904.06;;;6.67;78.89
49055;BME280;35405;52.344;14.530;2024-02-04T05:24:19;100916.19;;;6.71;78.77
49055;BME280;35405;52.344;14.530;2024-02-04T05:26:45;100914.47;;;6.70;78.51
49055;BME280;35405;52.344;14.530;2024-02-04T05:29:10;100916.19;;;6.65;79.41
49055;BME280;35405;52.344;14.530;2024-02-04T05:31:40;100924.88;;;6.64;78.57
49055;BME280;35405;52.344;14.530;2024-02-04T05:34:05;100935.25;;;6.65;79.19
49055;BME280;35405;52.344;14.530;2024-02-04T05:36:31;100914.47;;;6.64;78.59
49055;BME280;35405;52.344;14.530;2024-02-04T05:38:57;100917.06;;;6.57;78.79
49055;BME280;35405;52.344;14.530;2024-02-04T05:41:24;100915.31;;;6.49;79.39
49055;BME280;35405;52.344;14.530;2024-02-04T05:43:50;100912.72;;;6.50;78.63
49055;BME280;35405;52.344;14.530;2024-02-04T05:46:15;100927.41;;;6.45;79.83
49055;BME280;35405;52.344;14.530;2024-02-04T05:48:40;100920.50;;;6.44;79.68
49055;BME280;35405;52.344;14.530;2024-02-04T05:51:09;100910.06;;;6.41;79.68
49055;BME280;35405;52.344;14.530;2024-02-04T05:53:34;100912.69;;;6.38;79.87
49055;BME280;35405;52.344;14.530;2024-02-04T05:55:59;100912.69;;;6.37;79.88
49055;BME280;35405;52.344;14.530;2024-02-04T05:58:25;100901.41;;;6.31;80.16
49055;BME280;35405;52.344;14.530;2024-02-04T06:00:50;100910.06;;;6.32;79.28
49055;BME280;35405;52.344;14.530;2024-02-04T06:03:15;100903.13;;;6.31;79.59
49055;BME280;35405;52.344;14.530;2024-02-04T06:05:40;100904.88;;;6.33;79.40
49055;BME280;35405;52.344;14.530;2024-02-04T06:08:05;100902.28;;;6.32;79.81
49055;BME280;35405;52.344;14.530;2024-02-04T06:10:31;100893.59;;;6.27;79.31
49055;BME280;35405;52.344;14.530;2024-02-04T06:12:56;100903.16;;;6.28;80.10
49055;BME280;35405;52.344;14.530;2024-02-04T06:15:21;100891.00;;;6.30;80.14
49055;BME280;35405;52.344;14.530;2024-02-04T06:17:46;100896.22;;;6.28;80.11
49055;BME280;35405;52.344;14.530;2024-02-04T06:20:12;100899.66;;;6.30;79.35
49055;BME280;35405;52.344;14.530;2024-02-04T06:22:37;100897.09;;;6.27;80.15
49055;BME280;35405;52.344;14.530;2024-02-04T06:25:02;100904.00;;;6.24;79.65
49055;BME280;35405;52.344;14.530;2024-02-04T06:27:28;100902.28;;;6.29;80.18
49055;BME280;35405;52.344;14.530;2024-02-04T06:29:54;100890.16;;;6.37;80.14
49055;BME280;35405;52.344;14.530;2024-02-04T06:32:19;100896.25;;;6.44;79.48
49055;BME280;35405;52.344;14.530;2024-02-04T06:34:48;100902.28;;;6.40;79.41
49055;BME280;35405;52.344;14.530;2024-02-04T06:37:14;100908.34;;;6.40;79.34
49055;BME280;35405;52.344;14.530;2024-02-04T06:39:39;100905.75;;;6.37;79.62
49055;BME280;35405;52.344;14.530;2024-02-04T06:42:04;100888.41;;;6.41;79.49
49055;BME280;35405;52.344;14.530;2024-02-04T06:44:29;100899.66;;;6.33;79.44
49055;BME280;35405;52.344;14.530;2024-02-04T06:46:55;100895.34;;;6.31;79.36
49055;BME280;35405;52.344;14.530;2024-02-04T06:49:20;100904.88;;;6.30;78.69
49055;BME280;35405;52.344;14.530;2024-02-04T06:51:45;100895.34;;;6.34;79.07
49055;BME280;35405;52.344;14.530;2024-02-04T06:54:13;100894.47;;;6.32;79.72
49055;BME280;35405;52.344;14.530;2024-02-04T06:56:38;100889.28;;;6.38;79.89
49055;BME280;35405;52.344;14.530;2024-02-04T06:59:04;100872.84;;;6.42;79.41
49055;BME280;35405;52.344;14.530;2024-02-04T07:01:35;100887.56;;;6.46;79.71
49055;BME280;35405;52.344;14.530;2024-02-04T07:04:00;100878.06;;;6.56;79.17
49055;BME280;35405;52.344;14.530;2024-02-04T07:06:25;100873.72;;;6.58;78.22
49055;BME280;35405;52.344;14.530;2024-02-04T07:08:51;100884.13;;;6.58;77.93
49055;BME280;35405;52.344;14.530;2024-02-04T07:11:16;100887.59;;;6.58;78.71
49055;BME280;35405;52.344;14.530;2024-02-04T07:13:41;100877.19;;;6.63;77.37
49055;BME280;35405;52.344;14.530;2024-02-04T07:16:07;100875.47;;;6.59;78.12
49055;BME280;35405;52.344;14.530;2024-02-04T07:18:32;100876.34;;;6.64;77.92
49055;BME280;35405;52.344;14.530;2024-02-04T07:20:57;100871.13;;;6.69;77.26
49055;BME280;35405;52.344;14.530;2024-02-04T07:23:22;100881.53;;;6.73;76.59
49055;BME280;35405;52.344;14.530;2024-02-04T07:25:47;100894.50;;;6.82;76.69
49055;BME280;35405;52.344;14.530;2024-02-04T07:28:13;100896.25;;;6.88;76.43
49055;BME280;35405;52.344;14.530;2024-02-04T07:30:38;100896.25;;;7.00;75.86
49055;BME280;35405;52.344;14.530;2024-02-04T07:33:03;100891.03;;;7.11;76.82
49055;BME280;35405;52.344;14.530;2024-02-04T07:35:29;100886.69;;;7.24;75.79
49055;BME280;35405;52.344;14.530;2024-02-04T07:37:54;100877.97;;;7.32;75.51
49055;BME280;35405;52.344;14.530;2024-02-04T07:40:19;100877.09;;;7.44;74.93
49055;BME280;35405;52.344;14.530;2024-02-04T07:42:44;100872.72;;;7.55;74.89
49055;BME280;35405;52.344;14.530;2024-02-04T07:45:09;100865.75;;;7.60;74.73
49055;BME280;35405;52.344;14.530;2024-02-04T07:47:35;100874.44;;;7.58;74.36
49055;BME280;35405;52.344;14.530;2024-02-04T07:50:00;100861.41;;;7.59;73.67
49055;BME280;35405;52.344;14.530;2024-02-04T07:52:26;100859.69;;;7.58;74.39
49055;BME280;35405;52.344;14.530;2024-02-04T07:54:51;100851.84;;;7.70;73.87
49055;BME280;35405;52.344;14.530;2024-02-04T07:57:16;100855.28;;;7.68;74.22
49055;BME280;35405;52.344;14.530;2024-02-04T07:59:41;100850.09;;;7.71;73.69
49055;BME280;35405;52.344;14.530;2024-02-04T08:02:07;100857.88;;;7.77;73.65
49055;BME280;35405;52.344;14.530;2024-02-04T08:04:32;100862.19;;;7.80;73.69
49055;BME280;35405;52.344;14.530;2024-02-04T08:06:57;100871.72;;;7.85;73.59
49055;BME280;35405;52.344;14.530;2024-02-04T08:09:23;100859.53;;;7.96;73.98
49055;BME280;35405;52.344;14.530;2024-02-04T08:11:48;100851.72;;;7.89;73.89
49055;BME280;35405;52.344;14.530;2024-02-04T08:14:13;100848.28;;;7.90;73.95
49055;BME280;35405;52.344;14.530;2024-02-04T08:16:42;100839.63;;;7.85;73.47
49055;BME280;35405;52.344;14.530;2024-02-04T08:19:08;100831.78;;;7.91;73.33
49055;BME280;35405;52.344;14.530;2024-02-04T08:21:33;100838.69;;;7.98;73.85
49055;BME280;35405;52.344;14.530;2024-02-04T08:23:58;100836.88;;;8.06;72.60
49055;BME280;35405;52.344;14.530;2024-02-04T08:26:24;100835.06;;;8.17;73.11
49055;BME280;35405;52.344;14.530;2024-02-04T08:28:49;100828.97;;;8.21;72.40
49055;BME280;35405;52.344;14.530;2024-02-04T08:31:15;100813.38;;;8.15;72.67
49055;BME280;35405;52.344;14.530;2024-02-04T08:33:45;100822.00;;;8.22;72.42
49055;BME280;35405;52.344;14.530;2024-02-04T08:36:13;100828.94;;;8.26;72.38
49055;BME280;35405;52.344;14.530;2024-02-04T08:38:38;100821.94;;;8.33;71.71
49055;BME280;35405;52.344;14.530;2024-02-04T08:41:04;100823.69;;;8.32;71.12
49055;BME280;35405;52.344;14.530;2024-02-04T08:43:29;100832.38;;;8.33;70.96
49055;BME280;35405;52.344;14.530;2024-02-04T08:45:54;100821.06;;;8.37;70.89
49055;BME280;35405;52.344;14.530;2024-02-04T08:48:19;100824.53;;;8.40;70.96
49055;BME280;35405;52.344;14.530;2024-02-04T08:50:47;100817.56;;;8.42;70.75
49055;BME280;35405;52.344;14.530;2024-02-04T08:53:12;100821.00;;;8.44;70.03
49055;BME280;35405;52.344;14.530;2024-02-04T08:55:38;100820.94;;;8.52;70.10
49055;BME280;35405;52.344;14.530;2024-02-04T08:58:03;100812.25;;;8.53;69.50
49055;BME280;35405;52.344;14.530;2024-02-04T09:00:28;100808.88;;;8.40;69.22
49055;BME280;35405;52.344;14.530;2024-02-04T09:02:53;100803.53;;;8.56;68.97
49055;BME280;35405;52.344;14.530;2024-02-04T09:05:21;100809.63;;;8.55;68.99
49055;BME280;35405;52.344;14.530;2024-02-04T09:07:46;100798.28;;;8.60;68.63
49055;BME280;35405;52.344;14.530;2024-02-04T09:10:12;100797.38;;;8.64;68.45
49055;BME280;35405;52.344;14.530;2024-02-04T09:12:37;100793.03;;;8.63;67.92
49055;BME280;35405;52.344;14.530;2024-02-04T09:15:03;100781.72;;;8.67;67.79
49055;BME280;35405;52.344;14.530;2024-02-04T09:17:29;100785.91;;;8.82;67.92
49055;BME280;35405;52.344;14.530;2024-02-04T09:19:55;100783.22;;;8.87;67.92
49055;BME280;35405;52.344;14.530;2024-02-04T09:22:20;100791.03;;;8.91;67.74
49055;BME280;35405;52.344;14.530;2024-02-04T09:24:45;100782.28;;;8.94;67.46
49055;BME280;35405;52.344;14.530;2024-02-04T09:27:10;100783.25;;;8.88;67.67
49055;BME280;35405;52.344;14.530;2024-02-04T09:29:36;100782.31;;;8.95;67.25
49055;BME280;35405;52.344;14.530;2024-02-04T09:32:01;100792.72;;;8.97;67.07
49055;BME280;35405;52.344;14.530;2024-02-04T09:34:26;100792.81;;;8.86;66.94
49055;BME280;35405;52.344;14.530;2024-02-04T09:36:52;100785.84;;;8.90;66.69
49055;BME280;35405;52.344;14.530;2024-02-04T09:39:18;100798.84;;;8.91;66.24
49055;BME280;35405;52.344;14.530;2024-02-04T09:41:46;100784.81;;;9.03;65.99
49055;BME280;35405;52.344;14.530;2024-02-04T09:44:11;100774.38;;;9.03;65.48
49055;BME280;35405;52.344;14.530;2024-02-04T09:46:36;100804.81;;;9.04;65.30
49055;BME280;35405;52.344;14.530;2024-02-04T09:49:02;100794.34;;;9.07;65.66
49055;BME280;35405;52.344;14.530;2024-02-04T09:51:27;100785.75;;;8.97;65.70
49055;BME280;35405;52.344;14.530;2024-02-04T09:53:53;100775.22;;;9.05;65.69
49055;BME280;35405;52.344;14.530;2024-02-04T09:56:19;100782.03;;;9.18;65.75
49055;BME280;35405;52.344;14.530;2024-02-04T09:58:47;100791.44;;;9.33;65.46
49055;BME280;35405;52.344;14.530;2024-02-04T10:01:12;100794.81;;;9.41;65.38
49055;BME280;35405;52.344;14.530;2024-02-04T10:03:38;100787.66;;;9.58;65.08
49055;BME280;35405;52.344;14.530;2024-02-04T10:06:04;100791.00;;;9.65;65.13
49055;BME280;35405;52.344;14.530;2024-02-04T10:08:29;100792.72;;;9.69;64.91
49055;BME280;35405;52.344;14.530;2024-02-04T10:10:54;100781.34;;;9.73;64.72
49055;BME280;35405;52.344;14.530;2024-02-04T10:13:23;100775.28;;;9.73;63.86
49055;BME280;35405;52.344;14.530;2024-02-04T10:15:49;100775.25;;;9.71;64.09
49055;BME280;35405;52.344;14.530;2024-02-04T10:18:16;100770.66;;;9.90;64.10
49055;BME280;35405;52.344;14.530;2024-02-04T10:20:42;100778.44;;;9.93;63.78
49055;BME280;35405;52.344;14.530;2024-02-04T10:23:07;100777.66;;;9.86;63.42
49055;BME280;35405;52.344;14.530;2024-02-04T10:25:33;100772.28;;;9.97;63.06
49055;BME280;35405;52.344;14.530;2024-02-04T10:27:58;100760.13;;;9.93;62.85
49055;BME280;35405;52.344;14.530;2024-02-04T10:30:24;100760.13;;;9.93;62.83
49055;BME280;35405;52.344;14.530;2024-02-04T10:32:52;100745.22;;;10.00;62.84
49055;BME280;35405;52.344;14.530;2024-02-04T10:35:21;100747.00;;;9.98;62.83
49055;BME280;35405;52.344;14.530;2024-02-04T10:37:48;100749.69;;;9.93;62.67
49055;BME280;35405;52.344;14.530;2024-02-04T10:40:14;100748.75;;;9.97;62.86
49055;BME280;35405;52.344;14.530;2024-02-04T10:42:39;100754.75;;;10.04;62.94
49055;BME280;35405;52.344;14.530;2024-02-04T10:45:07;100746.06;;;10.03;62.71
49055;BME280;35405;52.344;14.530;2024-02-04T10:47:33;100748.69;;;10.02;62.73
49055;BME280;35405;52.344;14.530;2024-02-04T10:50:02;100731.94;;;10.13;62.52
49055;BME280;35405;52.344;14.530;2024-02-04T10:52:31;100734.88;;;9.94;61.66
49055;BME280;35405;52.344;14.530;2024-02-04T10:55:00;100726.28;;;9.87;62.08
49055;BME280;35405;52.344;14.530;2024-02-04T10:57:26;100709.56;;;9.97;62.08
49055;BME280;35405;52.344;14.530;2024-02-04T10:59:52;100700.00;;;9.96;61.67
49055;BME280;35405;52.344;14.530;2024-02-04T11:02:19;100709.47;;;10.03;60.97
49055;BME280;35405;52.344;14.530;2024-02-04T11:04:44;100703.41;;;10.00;60.51
49055;BME280;35405;52.344;14.530;2024-02-04T11:07:10;100712.16;;;9.99;60.63
49055;BME280;35405;52.344;14.530;2024-02-04T11:09:37;100706.06;;;9.98;60.38
49055;BME280;35405;52.344;14.530;2024-02-04T11:12:03;100686.97;;;9.95;60.61
49055;BME280;35405;52.344;14.530;2024-02-04T11:14:30;100693.16;;;9.86;60.42
49055;BME280;35405;52.344;14.530;2024-02-04T11:24:54;100684.34;;;9.93;59.88
49055;BME280;35405;52.344;14.530;2024-02-04T11:27:18;100692.00;;;10.05;59.98
49055;BME280;35405;52.344;14.530;2024-02-04T11:29:44;100684.84;;;10.16;59.32
49055;BME280;35405;52.344;14.530;2024-02-04T11:32:09;100672.06;;;9.98;58.53
49055;BME280;35405;52.344;14.530;2024-02-04T11:34:35;100685.13;;;10.00;59.37
49055;BME280;35405;52.344;14.530;2024-02-04T11:37:17;100675.50;;;10.00;58.87
49055;BME280;35405;52.344;14.530;2024-02-04T11:39:53;100683.44;;;9.96;59.32
49055;BME280;35405;52.344;14.530;2024-02-04T11:42:19;100682.47;;;10.03;59.21
49055;BME280;35405;52.344;14.530;2024-02-04T11:44:47;100663.28;;;10.04;59.10
49055;BME280;35405;52.344;14.530;2024-02-04T11:47:22;100667.56;;;10.08;58.77
49055;BME280;35405;52.344;14.530;2024-02-04T11:49:53;100665.66;;;10.17;58.98
49055;BME280;35405;52.344;14.530;2024-02-04T11:52:18;100660.31;;;10.25;57.54
49055;BME280;35405;52.344;14.530;2024-02-04T11:54:44;100645.66;;;10.15;58.11
49055;BME280;35405;52.344;14.530;2024-02-04T11:57:09;100650.22;;;10.04;58.26
49055;BME280;35405;52.344;14.530;2024-02-04T11:59:34;100651.84;;;10.09;57.87
49055;BME280;35405;52.344;14.530;2024-02-04T12:02:05;100644.63;;;10.25;57.83
49055;BME280;35405;52.344;14.530;2024-02-04T12:04:31;100634.84;;;10.35;57.80
49055;BME280;35405;52.344;14.530;2024-02-04T12:06:56;100623.63;;;10.30;57.71
49055;BME280;35405;52.344;14.530;2024-02-04T12:09:22;100621.84;;;10.32;58.03
49055;BME280;35405;52.344;14.530;2024-02-04T12:11:47;100614.63;;;10.44;56.98
49055;BME280;35405;52.344;14.530;2024-02-04T12:14:13;100619.16;;;10.36;57.34
49055;BME280;35405;52.344;14.530;2024-02-04T12:16:38;100626.38;;;10.22;57.14
49055;BME280;35405;52.344;14.530;2024-02-04T12:19:05;100617.66;;;10.20;57.00
49055;BME280;35405;52.344;14.530;2024-02-04T12:21:30;100606.16;;;10.32;56.86
49055;BME280;35405;52.344;14.530;2024-02-04T12:23:56;100617.47;;;10.32;57.10
49055;BME280;35405;52.344;14.530;2024-02-04T12:26:22;100617.47;;;10.32;56.90
49055;BME280;35405;52.344;14.530;2024-02-04T12:28:48;100618.34;;;10.33;56.89
49055;BME280;35405;52.344;14.530;2024-02-04T12:31:20;100621.25;;;10.16;56.49
49055;BME280;35405;52.344;14.530;2024-02-04T12:33:55;100608.25;;;10.11;57.14
49055;BME280;35405;52.344;14.530;2024-02-04T12:36:23;100614.22;;;10.18;56.61
49055;BME280;35405;52.344;14.530;2024-02-04T12:38:54;100604.19;;;9.94;57.49
49055;BME280;35405;52.344;14.530;2024-02-04T12:41:20;100614.78;;;9.86;57.36
49055;BME280;35405;52.344;14.530;2024-02-04T12:43:49;100627.72;;;9.95;57.58
49055;BME280;35405;52.344;14.530;2024-02-04T12:46:14;100611.06;;;10.01;56.95
49055;BME280;35405;52.344;14.530;2024-02-04T12:48:39;100614.47;;;10.04;56.76
49055;BME280;35405;52.344;14.530;2024-02-04T12:51:08;100593.34;;;10.16;55.88